Time;durP1;ratioP1;P1;durP2;ratioP2;P2;SDS_P1;SDS_P2;PMS_P1;PMS_P2;Temp;Humidity;BMP_temperature;BMP_pressure;BME280_temperature;BME280_humidity;BME280_pressure;Samples;Min_cycle;Max_cycle;Signal;HPM_P1;HPM_P2
2022/09/26 00:01:10;;;;;;;1.75;0.90;;;10.70;99.90;;;;;;5061250;28;20510;-73
2022/09/26 00:03:36;;;;;;;1.30;0.75;;;10.70;99.90;;;;;;5079531;28;20048;-74
2022/09/26 00:06:04;;;;;;;2.70;0.98;;;10.70;99.90;;;;;;5079211;28;20040;-72
2022/09/26 00:08:31;;;;;;;1.67;1.00;;;10.70;99.90;;;;;;5061298;28;20072;-72
2022/09/26 00:10:58;;;;;;;2.33;1.00;;;10.70;99.90;;;;;;5079131;28;20043;-72
2022/09/26 00:13:29;;;;;;;2.65;1.05;;;10.70;99.90;;;;;;5061288;28;20056;-72
2022/09/26 00:15:55;;;;;;;1.15;0.88;;;10.70;99.90;;;;;;5079441;28;20044;-71
2022/09/26 00:18:22;;;;;;;3.78;1.05;;;10.70;99.90;;;;;;5079146;28;20127;-72
2022/09/26 00:20:47;;;;;;;1.27;0.88;;;10.70;99.90;;;;;;5079010;28;20041;-72
2022/09/26 00:23:13;;;;;;;2.97;1.42;;;10.70;99.90;;;;;;5079358;28;20051;-72
2022/09/26 00:25:48;;;;;;;1.70;0.98;;;10.80;99.90;;;;;;5079516;28;20382;-72
2022/09/26 00:28:15;;;;;;;1.88;0.98;;;10.70;99.90;;;;;;5061327;28;20047;-72
2022/09/26 00:30:43;;;;;;;1.13;0.95;;;10.60;99.90;;;;;;5079296;28;20067;-73
2022/09/26 00:33:10;;;;;;;1.15;0.98;;;10.80;99.90;;;;;;5060989;28;20044;-73
2022/09/26 00:35:36;;;;;;;0.75;0.68;;;10.70;99.90;;;;;;5079299;28;20040;-72
2022/09/26 00:38:01;;;;;;;0.88;0.70;;;10.70;99.90;;;;;;5061009;28;20036;-72
2022/09/26 00:40:27;;;;;;;3.53;1.10;;;10.70;99.90;;;;;;5060992;28;20098;-72
2022/09/26 00:42:54;;;;;;;1.77;0.90;;;10.90;99.90;;;;;;5061261;28;20059;-72
2022/09/26 00:45:23;;;;;;;0.60;0.60;;;10.60;99.90;;;;;;5079259;28;20234;-72
2022/09/26 00:47:58;;;;;;;3.38;1.15;;;10.70;99.90;;;;;;5079211;28;20111;-72
2022/09/26 00:50:36;;;;;;;4.97;1.38;;;10.60;99.90;;;;;;5061007;28;20063;-72
2022/09/26 00:53:06;;;;;;;2.20;0.90;;;10.70;99.90;;;;;;5079046;28;20052;-72
2022/09/26 00:55:37;;;;;;;3.30;1.00;;;10.70;99.90;;;;;;5079087;28;20085;-72
2022/09/26 00:58:17;;;;;;;3.80;1.15;;;10.70;99.90;;;;;;5078757;28;20043;-72
2022/09/26 01:00:46;;;;;;;2.38;1.13;;;10.60;99.90;;;;;;5079072;28;20063;-72
2022/09/26 01:03:13;;;;;;;3.60;0.90;;;10.60;99.90;;;;;;5078995;28;20037;-73
2022/09/26 01:05:39;;;;;;;3.08;1.17;;;10.70;99.90;;;;;;5079007;28;20040;-72
2022/09/26 01:08:05;;;;;;;1.35;0.93;;;10.90;99.90;;;;;;5057606;28;20170;-72
2022/09/26 01:10:34;;;;;;;3.35;1.17;;;10.70;99.90;;;;;;5075844;28;20051;-72
2022/09/26 01:13:00;;;;;;;0.85;0.80;;;10.70;99.90;;;;;;5075231;28;20488;-72
2022/09/26 01:15:26;;;;;;;2.45;1.00;;;10.70;99.90;;;;;;5057465;28;20041;-74
2022/09/26 01:17:52;;;;;;;1.42;1.02;;;10.70;99.90;;;;;;5075670;28;20373;-72
2022/09/26 01:20:45;;;;;;;4.82;1.15;;;10.60;99.90;;;;;;5057445;28;20494;-72
2022/09/26 01:23:12;;;;;;;5.57;1.05;;;10.60;99.90;;;;;;5024471;28;20110;-72
2022/09/26 01:25:52;;;;;;;1.55;0.82;;;10.60;99.90;;;;;;5057321;28;20129;-73
2022/09/26 01:28:52;;;;;;;2.17;1.10;;;10.60;99.90;;;;;;5075520;28;20040;-73
2022/09/26 01:31:41;;;;;;;3.88;0.85;;;10.60;99.90;;;;;;5057453;28;20135;-74
2022/09/26 01:34:32;;;;;;;1.48;0.70;;;10.60;99.90;;;;;;5075411;28;20032;-71
2022/09/26 01:37:25;;;;;;;1.38;0.80;;;10.60;99.90;;;;;;5075304;28;20036;-72
2022/09/26 01:40:12;;;;;;;2.25;0.60;;;10.60;99.90;;;;;;5075047;28;20090;-72
2022/09/26 01:43:08;;;;;;;2.50;0.98;;;11.10;99.90;;;;;;5075242;28;20032;-72
2022/09/26 01:46:00;;;;;;;0.95;0.70;;;10.60;99.90;;;;;;5074772;28;20051;-72
2022/09/26 01:48:35;;;;;;;1.02;0.70;;;10.70;99.90;;;;;;5075118;28;20040;-72
2022/09/26 01:51:14;;;;;;;3.50;0.77;;;10.80;99.90;;;;;;5074651;28;20503;-73
2022/09/26 01:53:54;;;;;;;1.17;0.70;;;10.70;99.90;;;;;;5056763;28;20041;-73
2022/09/26 01:56:28;;;;;;;0.73;0.73;;;10.70;99.90;;;;;;5074642;28;20050;-71
2022/09/26 01:58:59;;;;;;;0.90;0.70;;;10.80;99.90;;;;;;5074538;28;20036;-72
2022/09/26 02:01:29;;;;;;;0.98;0.60;;;11.00;99.90;;;;;;5075082;28;20094;-70
2022/09/26 02:04:00;;;;;;;1.85;0.63;;;10.80;99.90;;;;;;5056667;28;20047;-69
2022/09/26 02:07:10;;;;;;;5.50;1.15;;;10.80;99.90;;;;;;5056506;28;20040;-70
2022/09/26 02:09:51;;;;;;;2.20;0.93;;;10.80;99.90;;;;;;4957372;28;20121;-70
2022/09/26 02:12:27;;;;;;;1.57;0.97;;;10.90;99.90;;;;;;4957406;28;20130;-70
2022/09/26 02:14:57;;;;;;;1.45;0.77;;;11.10;99.90;;;;;;5024942;28;20291;-70
2022/09/26 02:17:32;;;;;;;1.38;0.77;;;10.90;99.90;;;;;;5074523;28;20067;-70
2022/09/26 02:20:01;;;;;;;2.75;0.70;;;10.90;99.90;;;;;;5074299;28;20036;-70
2022/09/26 02:22:30;;;;;;;3.67;0.98;;;10.90;99.90;;;;;;5074203;28;20119;-70
2022/09/26 02:24:57;;;;;;;3.28;0.77;;;10.90;99.90;;;;;;5074320;28;20059;-69
2022/09/26 02:27:25;;;;;;;1.38;0.88;;;10.90;99.90;;;;;;5056475;28;20082;-70
2022/09/26 02:29:51;;;;;;;1.60;0.75;;;10.90;99.90;;;;;;5056206;28;20510;-71
2022/09/26 02:32:24;;;;;;;4.13;1.08;;;10.90;99.90;;;;;;5074215;28;20087;-70
2022/09/26 02:34:50;;;;;;;2.30;1.17;;;10.90;99.90;;;;;;5074213;28;20072;-70
2022/09/26 02:37:19;;;;;;;3.35;1.15;;;11.00;99.90;;;;;;5039347;28;20083;-71
2022/09/26 02:39:46;;;;;;;0.82;0.80;;;10.90;99.90;;;;;;5056197;28;20434;-70
2022/09/26 02:42:27;;;;;;;1.42;1.10;;;10.90;99.90;;;;;;5073662;28;20044;-70
2022/09/26 02:45:25;;;;;;;1.75;1.10;;;10.90;99.90;;;;;;5056094;28;20045;-72
2022/09/26 02:48:15;;;;;;;1.42;1.17;;;10.90;99.90;;;;;;5055702;28;20049;-70
2022/09/26 02:51:14;;;;;;;3.83;1.50;;;11.00;99.90;;;;;;5055731;28;20048;-70
2022/09/26 02:53:52;;;;;;;1.60;0.88;;;10.90;99.90;;;;;;5073871;28;20545;-71
2022/09/26 02:56:28;;;;;;;3.35;1.33;;;10.90;99.90;;;;;;5073482;28;20036;-71
2022/09/26 02:59:13;;;;;;;3.20;1.30;;;11.00;99.90;;;;;;5073428;28;20078;-72
2022/09/26 03:01:47;;;;;;;6.60;1.42;;;10.90;99.90;;;;;;5073651;28;20040;-70
2022/09/26 03:04:30;;;;;;;1.45;0.95;;;11.10;99.90;;;;;;5073574;28;20395;-71
2022/09/26 03:07:01;;;;;;;0.93;0.82;;;10.90;99.90;;;;;;5055649;28;20381;-71
2022/09/26 03:09:29;;;;;;;1.58;1.25;;;10.90;99.90;;;;;;5073220;28;20032;-71
2022/09/26 03:11:59;;;;;;;1.73;1.13;;;10.90;99.90;;;;;;5055215;28;20075;-72
2022/09/26 03:14:28;;;;;;;2.40;1.20;;;10.90;99.90;;;;;;5073059;28;20053;-71
2022/09/26 03:16:54;;;;;;;2.03;1.25;;;10.90;99.90;;;;;;5055197;28;20036;-71
2022/09/26 03:20:05;;;;;;;2.22;1.30;;;10.80;99.90;;;;;;5073321;28;20482;-71
2022/09/26 03:22:32;;;;;;;;;;;10.80;99.90;;;;;;5055869;28;20060;-72
2022/09/26 03:24:59;;;;;;;2.83;1.33;;;10.80;99.90;;;;;;5055391;28;20433;-71
2022/09/26 03:27:26;;;;;;;6.38;1.70;;;10.80;99.90;;;;;;5073001;28;20185;-71
2022/09/26 03:29:52;;;;;;;3.58;1.90;;;10.80;99.90;;;;;;5072535;28;20045;-71
2022/09/26 03:32:17;;;;;;;2.88;1.35;;;10.90;99.90;;;;;;5055224;28;20036;-71
2022/09/26 03:34:43;;;;;;;6.68;1.75;;;10.70;99.90;;;;;;5055019;28;20110;-71
2022/09/26 03:37:10;;;;;;;3.42;1.65;;;10.80;99.90;;;;;;5072891;28;20045;-71
2022/09/26 03:39:35;;;;;;;3.33;1.63;;;10.80;99.90;;;;;;5054997;28;20044;-71
2022/09/26 03:42:01;;;;;;;3.92;1.80;;;10.80;99.90;;;;;;5054959;28;20044;-71
2022/09/26 03:44:28;;;;;;;2.50;1.20;;;10.80;99.90;;;;;;5073129;28;20052;-71
2022/09/26 03:46:54;;;;;;;2.80;1.60;;;10.80;99.90;;;;;;5072701;28;20407;-71
2022/09/26 03:49:20;;;;;;;4.38;1.67;;;10.80;99.90;;;;;;5073004;28;20044;-70
2022/09/26 03:51:45;;;;;;;2.50;1.48;;;10.80;99.90;;;;;;5072661;28;20069;-71
2022/09/26 03:54:12;;;;;;;2.70;1.83;;;10.80;99.90;;;;;;5054928;28;20050;-71
2022/09/26 03:56:38;;;;;;;3.80;1.85;;;10.80;99.90;;;;;;5072923;28;20078;-71
2022/09/26 03:59:03;;;;;;;3.22;1.83;;;10.80;99.90;;;;;;5072581;28;20491;-71
2022/09/26 04:01:29;;;;;;;2.20;1.55;;;10.80;99.90;;;;;;5054667;28;20054;-71
2022/09/26 04:03:56;;;;;;;4.32;1.58;;;11.00;99.90;;;;;;5072856;28;20483;-70
2022/09/26 04:06:22;;;;;;;2.83;1.67;;;10.80;99.90;;;;;;5054998;28;20044;-71
2022/09/26 04:08:49;;;;;;;3.10;1.98;;;10.80;99.90;;;;;;5072942;28;20045;-71
2022/09/26 04:11:21;;;;;;;2.95;1.67;;;10.80;99.90;;;;;;5054480;28;20056;-72
2022/09/26 04:13:48;;;;;;;2.75;1.48;;;10.80;99.90;;;;;;5072415;28;20052;-71
2022/09/26 04:16:14;;;;;;;3.22;1.98;;;10.80;99.90;;;;;;5054816;28;20047;-71
2022/09/26 04:18:40;;;;;;;3.25;2.00;;;10.70;99.90;;;;;;5072744;28;20044;-70
2022/09/26 04:21:08;;;;;;;3.33;1.92;;;10.70;99.90;;;;;;5072467;28;20045;-70
2022/09/26 04:23:36;;;;;;;2.60;1.67;;;10.70;99.90;;;;;;5054322;28;20040;-70
2022/09/26 04:26:14;;;;;;;2.85;1.75;;;10.70;99.90;;;;;;5072640;28;20542;-70
2022/09/26 04:28:41;;;;;;;2.70;1.90;;;10.70;99.90;;;;;;5072395;28;20045;-71
2022/09/26 04:31:09;;;;;;;3.33;1.92;;;10.90;99.90;;;;;;5072497;28;20429;-70
2022/09/26 04:33:36;;;;;;;3.40;2.00;;;10.70;99.90;;;;;;5072577;28;20040;-71
2022/09/26 04:36:10;;;;;;;2.47;1.85;;;10.70;99.90;;;;;;5072152;28;20386;-72
2022/09/26 04:38:36;;;;;;;3.65;2.17;;;10.70;99.90;;;;;;5072486;28;20036;-71
2022/09/26 04:41:10;;;;;;;4.13;2.15;;;10.70;99.90;;;;;;5054215;28;20045;-70
2022/09/26 04:43:37;;;;;;;4.70;2.40;;;10.70;99.90;;;;;;5056769;28;20047;-71
2022/09/26 04:46:08;;;;;;;4.05;2.10;;;10.60;99.90;;;;;;5058257;28;20045;-71
2022/09/26 04:48:34;;;;;;;3.42;2.10;;;11.00;99.90;;;;;;5075881;28;20120;-70
2022/09/26 04:51:07;;;;;;;3.40;2.17;;;10.60;99.90;;;;;;5075783;28;20082;-71
2022/09/26 04:53:34;;;;;;;4.70;2.38;;;10.60;99.90;;;;;;5057891;28;20045;-72
2022/09/26 04:56:00;;;;;;;4.95;2.45;;;10.60;99.90;;;;;;5075978;28;20032;-70
2022/09/26 04:58:26;;;;;;;4.97;2.40;;;10.60;99.90;;;;;;5075923;28;20428;-71
2022/09/26 05:00:51;;;;;;;3.08;2.20;;;10.60;99.90;;;;;;5076013;28;20110;-72
2022/09/26 05:03:18;;;;;;;4.30;2.42;;;10.50;99.90;;;;;;5057760;28;20490;-71
2022/09/26 05:05:46;;;;;;;2.92;2.17;;;10.60;99.90;;;;;;5075826;28;20043;-70
2022/09/26 05:08:12;;;;;;;4.43;2.63;;;10.60;99.90;;;;;;5057877;28;20040;-71
2022/09/26 05:10:39;;;;;;;3.50;2.30;;;10.60;99.90;;;;;;5075479;28;20119;-70
2022/09/26 05:13:06;;;;;;;5.20;2.45;;;10.60;99.90;;;;;;5057284;28;20056;-72
2022/09/26 05:15:37;;;;;;;3.45;2.60;;;10.60;99.90;;;;;;5057556;28;20124;-71
2022/09/26 05:18:06;;;;;;;3.13;2.15;;;10.70;99.90;;;;;;5075407;28;20048;-71
2022/09/26 05:20:33;;;;;;;6.32;2.85;;;10.60;99.90;;;;;;5057339;28;20045;-71
2022/09/26 05:23:02;;;;;;;3.67;2.45;;;10.60;99.90;;;;;;5075585;28;20036;-70
2022/09/26 05:28:14;;;;;;;3.38;2.22;;;10.70;99.90;;;;;;5057397;28;20488;-70
2022/09/26 05:30:40;;;;;;;4.32;2.13;;;10.60;99.90;;;;;;5075357;28;20048;-70
2022/09/26 05:33:06;;;;;;;3.70;2.33;;;10.60;99.90;;;;;;5057030;28;20495;-70
2022/09/26 05:35:35;;;;;;;3.42;2.28;;;10.60;99.90;;;;;;5075238;28;20048;-70
2022/09/26 05:38:02;;;;;;;5.03;2.13;;;10.60;99.90;;;;;;5057256;28;20122;-69
2022/09/26 05:43:13;;;;;;;5.45;2.97;;;10.60;99.90;;;;;;5074862;28;20052;-71
2022/09/26 05:45:38;;;;;;;3.90;2.40;;;10.60;99.90;;;;;;5074810;28;20040;-71
2022/09/26 05:48:05;;;;;;;4.78;3.20;;;10.60;99.90;;;;;;5074764;28;20044;-70
2022/09/26 05:50:34;;;;;;;5.88;2.67;;;10.60;99.90;;;;;;5074855;28;20442;-71
2022/09/26 05:53:01;;;;;;;4.75;2.63;;;11.20;99.90;;;;;;5074317;28;20060;-70
2022/09/26 05:55:28;;;;;;;4.53;3.15;;;10.60;99.90;;;;;;5056732;28;20040;-70
2022/09/26 05:57:57;;;;;;;4.93;2.65;;;10.60;99.90;;;;;;5057041;28;20047;-69
2022/09/26 06:00:26;;;;;;;5.03;2.42;;;10.60;99.90;;;;;;5074539;28;20024;-72
2022/09/26 06:03:02;;;;;;;5.05;3.00;;;10.50;99.90;;;;;;5056551;28;20041;-68
2022/09/26 06:05:30;;;;;;;5.57;2.85;;;10.50;99.90;;;;;;5056878;28;20055;-70
2022/09/26 06:07:58;;;;;;;7.78;3.28;;;10.60;99.90;;;;;;5074708;28;20515;-67
2022/09/26 06:10:24;;;;;;;5.20;3.03;;;10.50;99.90;;;;;;5056471;28;20049;-68
2022/09/26 06:12:49;;;;;;;3.72;2.45;;;10.60;99.90;;;;;;5074047;28;20502;-69
2022/09/26 06:15:16;;;;;;;4.13;2.83;;;10.60;99.90;;;;;;5056364;28;20059;-69
2022/09/26 06:17:42;;;;;;;5.80;3.15;;;10.50;99.90;;;;;;5074512;28;20510;-68
2022/09/26 06:20:08;;;;;;;4.53;2.70;;;10.50;99.90;;;;;;5074460;28;20033;-68
2022/09/26 06:22:41;;;;;;;5.20;2.88;;;10.50;99.90;;;;;;5074164;28;20055;-70
2022/09/26 06:25:09;;;;;;;4.88;2.20;;;10.50;99.90;;;;;;5056096;28;20040;-71
2022/09/26 06:27:37;;;;;;;8.00;2.67;;;10.50;99.90;;;;;;5073939;28;20049;-69
2022/09/26 06:30:09;;;;;;;8.60;3.15;;;10.50;99.90;;;;;;5073995;28;20098;-69
2022/09/26 06:32:38;;;;;;;3.95;2.30;;;10.50;99.90;;;;;;5056234;28;20072;-71
2022/09/26 06:35:07;;;;;;;3.83;2.50;;;10.70;99.90;;;;;;5055886;28;20135;-69
2022/09/26 06:37:32;;;;;;;6.97;3.13;;;10.50;99.90;;;;;;5074087;28;20062;-70
2022/09/26 06:39:59;;;;;;;7.20;2.15;;;10.50;99.90;;;;;;5074090;28;20041;-69
2022/09/26 06:42:25;;;;;;;3.38;2.20;;;10.50;99.90;;;;;;5073697;28;20123;-69
2022/09/26 06:44:51;;;;;;;4.28;2.60;;;10.70;99.90;;;;;;5073668;28;20119;-68
2022/09/26 06:47:17;;;;;;;5.03;2.72;;;10.50;99.90;;;;;;5073878;28;20032;-69
2022/09/26 06:49:47;;;;;;;5.47;1.95;;;10.60;99.90;;;;;;5073830;28;20080;-68
2022/09/26 06:52:13;;;;;;;4.53;2.28;;;10.60;99.90;;;;;;5073709;28;20079;-68
2022/09/26 06:54:38;;;;;;;4.30;2.20;;;10.60;99.90;;;;;;5056003;28;20071;-68
2022/09/26 06:57:04;;;;;;;3.20;2.20;;;10.60;99.90;;;;;;5073721;28;20044;-68
2022/09/26 06:59:30;;;;;;;2.72;2.00;;;10.60;99.90;;;;;;5073628;28;20040;-69
2022/09/26 07:01:58;;;;;;;2.63;1.98;;;10.60;99.90;;;;;;5073586;28;20123;-68
2022/09/26 07:04:26;;;;;;;5.57;2.33;;;10.60;99.90;;;;;;5073068;28;20040;-68
2022/09/26 07:06:52;;;;;;;3.00;1.90;;;10.60;99.90;;;;;;5073027;28;20364;-68
2022/09/26 07:09:18;;;;;;;3.38;2.17;;;10.60;99.90;;;;;;5038898;28;20174;-69
2022/09/26 07:11:46;;;;;;;4.90;1.95;;;10.60;99.90;;;;;;5073146;28;20067;-68
2022/09/26 07:14:15;;;;;;;2.65;1.77;;;10.60;99.90;;;;;;5038579;28;20067;-68
2022/09/26 07:16:42;;;;;;;3.47;2.10;;;10.50;99.90;;;;;;5073335;28;20036;-68
2022/09/26 07:19:09;;;;;;;5.78;1.70;;;10.50;99.90;;;;;;5055410;28;20452;-68
2022/09/26 07:21:35;;;;;;;3.40;1.90;;;10.50;99.90;;;;;;5054946;28;20047;-68
2022/09/26 07:24:01;;;;;;;2.45;1.83;;;10.50;99.90;;;;;;5072919;28;20123;-69
2022/09/26 07:26:26;;;;;;;5.65;2.17;;;10.50;99.90;;;;;;5073152;28;20041;-68
2022/09/26 07:28:52;;;;;;;3.38;1.80;;;10.50;99.90;;;;;;5073101;28;20471;-68
2022/09/26 07:31:19;;;;;;;3.10;1.80;;;10.40;99.90;;;;;;5072989;28;20503;-68
2022/09/26 07:33:44;;;;;;;5.53;1.85;;;10.40;99.90;;;;;;5055391;28;20036;-69
2022/09/26 07:36:10;;;;;;;3.63;1.92;;;10.40;99.90;;;;;;5054772;28;20045;-68
2022/09/26 07:38:36;;;;;;;2.67;1.98;;;10.40;99.90;;;;;;5072784;28;20476;-68
2022/09/26 07:41:02;;;;;;;2.60;1.58;;;10.40;99.90;;;;;;5072869;28;20045;-68
2022/09/26 07:43:27;;;;;;;2.47;1.83;;;10.40;99.90;;;;;;5055102;28;20391;-68
2022/09/26 07:51:23;;;;;;;1.98;1.35;;;10.50;99.90;;;;;;5073019;28;20052;-68
2022/09/26 07:53:48;;;;;;;2.83;1.65;;;10.50;99.90;;;;;;5054767;28;20052;-68
2022/09/26 07:56:15;;;;;;;2.38;1.80;;;10.50;99.90;;;;;;5054967;28;20066;-67
2022/09/26 07:58:42;;;;;;;3.42;1.75;;;10.50;99.90;;;;;;5055004;28;20425;-67
2022/09/26 08:01:15;;;;;;;2.22;1.77;;;10.50;99.90;;;;;;5054802;28;20044;-68
2022/09/26 08:03:48;;;;;;;2.92;1.65;;;10.50;99.90;;;;;;5072975;28;20069;-68
2022/09/26 08:06:18;;;;;;;6.10;1.52;;;10.40;99.90;;;;;;5072839;28;20036;-68
2022/09/26 08:08:46;;;;;;;3.33;2.00;;;10.50;99.90;;;;;;5072794;28;20106;-68
2022/09/26 08:11:17;;;;;;;2.22;1.38;;;10.50;99.90;;;;;;5054787;28;20047;-68
2022/09/26 08:13:43;;;;;;;;;;;10.60;99.90;;;;;;5055014;28;20060;-68
2022/09/26 08:16:09;;;;;;;2.58;1.67;;;10.50;99.90;;;;;;5054848;28;19916;-69
2022/09/26 08:18:35;;;;;;;5.65;1.63;;;10.60;99.90;;;;;;5076478;28;20032;-69
2022/09/26 08:21:05;;;;;;;3.95;1.70;;;10.60;99.90;;;;;;5076797;28;20039;-68
2022/09/26 08:23:32;;;;;;;1.98;1.50;;;10.60;99.90;;;;;;5076768;28;20089;-69
2022/09/26 08:25:58;;;;;;;2.75;1.83;;;;;;;;;;5076406;28;20111;-69
2022/09/26 08:28:27;;;;;;;2.65;1.60;;;10.60;99.90;;;;;;5076251;28;20054;-68
2022/09/26 08:30:53;;;;;;;2.10;1.40;;;10.70;99.90;;;;;;5058780;28;20115;-68
2022/09/26 08:33:20;;;;;;;2.03;1.50;;;10.70;99.90;;;;;;5058293;28;20136;-68
2022/09/26 08:35:47;;;;;;;2.00;1.63;;;10.70;99.90;;;;;;5058649;28;20559;-68
2022/09/26 08:38:14;;;;;;;2.53;1.50;;;10.70;99.90;;;;;;5076436;28;20480;-68
2022/09/26 08:40:44;;;;;;;3.72;1.88;;;10.70;99.90;;;;;;5076329;28;20075;-68
2022/09/26 08:43:58;;;;;;;2.65;1.60;;;10.70;99.90;;;;;;5075942;28;20048;-70
2022/09/26 08:46:48;;;;;;;3.05;1.77;;;10.80;99.90;;;;;;5000367;28;20495;-68
2022/09/26 08:49:33;;;;;;;4.10;2.30;;;10.80;99.90;;;;;;5076139;28;20395;-68
2022/09/26 08:52:04;;;;;;;4.82;2.20;;;10.80;99.90;;;;;;5075788;28;20123;-69
2022/09/26 08:54:49;;;;;;;4.10;1.80;;;10.80;99.90;;;;;;5058146;28;20063;-68
2022/09/26 08:57:37;;;;;;;2.25;1.35;;;10.80;99.90;;;;;;5058430;28;20174;-67
2022/09/26 09:00:23;;;;;;;2.60;1.73;;;10.90;99.90;;;;;;5075699;28;20036;-68
2022/09/26 09:03:09;;;;;;;6.97;1.70;;;10.90;99.90;;;;;;5058138;28;20044;-68
2022/09/26 09:05:39;;;;;;;5.20;1.65;;;11.00;99.90;;;;;;5058379;28;20045;-68
2022/09/26 09:08:39;;;;;;;3.10;1.92;;;11.00;99.90;;;;;;5058743;28;20555;-69
2022/09/26 09:11:08;;;;;;;2.17;1.27;;;11.00;99.90;;;;;;5036265;28;20125;-68
2022/09/26 09:13:51;;;;;;;2.58;1.38;;;11.10;99.90;;;;;;5057446;28;20063;-68
2022/09/26 09:16:43;;;;;;;2.72;1.70;;;11.20;99.90;;;;;;5057524;28;20044;-68
2022/09/26 09:19:47;;;;;;;4.22;1.50;;;11.20;99.90;;;;;;5075714;28;20389;-69
2022/09/26 09:22:45;;;;;;;2.83;1.63;;;11.20;99.90;;;;;;5054728;28;20056;-68
2022/09/26 09:25:21;;;;;;;1.65;1.13;;;11.30;99.90;;;;;;5057414;28;20116;-69
2022/09/26 09:28:03;;;;;;;2.92;1.20;;;;;;;;;;5056993;28;20122;-69
2022/09/26 09:30:56;;;;;;;1.70;1.17;;;11.40;99.90;;;;;;5075545;28;20037;-68
2022/09/26 09:33:44;;;;;;;5.95;1.33;;;11.50;99.90;;;;;;5057051;28;20551;-68
2022/09/26 09:36:19;;;;;;;3.22;1.42;;;11.40;99.90;;;;;;5075409;28;20044;-68
2022/09/26 09:38:47;;;;;;;4.97;1.50;;;11.40;99.90;;;;;;5057393;28;20487;-68
2022/09/26 09:41:33;;;;;;;2.80;1.42;;;11.50;99.90;;;;;;5074982;28;20041;-68
2022/09/26 09:44:04;;;;;;;2.28;1.40;;;11.50;99.90;;;;;;5075366;28;20044;-68
2022/09/26 09:46:41;;;;;;;7.60;1.75;;;11.50;99.90;;;;;;5074897;28;20040;-67
2022/09/26 09:49:08;;;;;;;1.52;1.15;;;11.50;99.90;;;;;;5074853;28;20033;-69
2022/09/26 09:52:11;;;;;;;2.45;1.40;;;11.80;99.90;;;;;;5075077;28;20048;-68
2022/09/26 09:54:37;;;;;;;3.17;1.80;;;11.50;99.90;;;;;;5075149;28;20166;-69
2022/09/26 09:57:40;;;;;;;2.40;1.50;;;11.50;99.90;;;;;;5056763;28;20127;-69
2022/09/26 10:00:16;;;;;;;2.15;1.50;;;11.60;99.90;;;;;;5074578;28;20072;-69
2022/09/26 10:03:01;;;;;;;3.33;1.58;;;11.60;99.90;;;;;;5074851;28;20142;-68
2022/09/26 10:05:44;;;;;;;1.92;1.50;;;11.60;99.90;;;;;;5074509;28;20044;-70
2022/09/26 10:08:25;;;;;;;3.22;1.60;;;11.60;99.90;;;;;;5074379;28;20131;-69
2022/09/26 10:11:27;;;;;;;2.58;1.58;;;11.60;99.90;;;;;;5074665;28;20525;-69
2022/09/26 10:13:57;;;;;;;3.17;1.50;;;11.60;99.90;;;;;;5074170;28;20056;-69
2022/09/26 10:16:23;;;;;;;2.30;1.40;;;11.60;99.90;;;;;;5056640;28;20062;-68
2022/09/26 10:19:04;;;;;;;2.20;1.23;;;11.60;99.90;;;;;;5074537;28;20033;-67
2022/09/26 10:21:46;;;;;;;4.07;1.52;;;11.50;99.90;;;;;;5074132;28;20049;-67
2022/09/26 10:24:37;;;;;;;1.92;1.27;;;11.50;99.90;;;;;;5074425;28;20115;-67
2022/09/26 10:27:39;;;;;;;3.13;1.58;;;11.50;99.90;;;;;;5074423;28;20040;-67
2022/09/26 10:30:18;;;;;;;2.70;1.67;;;11.60;99.90;;;;;;5051829;28;20049;-67
2022/09/26 10:32:46;;;;;;;2.35;1.52;;;;;;;;;;5073964;28;20084;-68
2022/09/26 10:35:23;;;;;;;7.38;2.22;;;11.70;99.90;;;;;;5074189;28;20407;-69
2022/09/26 10:37:59;;;;;;;3.70;1.63;;;11.70;99.90;;;;;;5073981;28;20043;-67
2022/09/26 10:40:44;;;;;;;3.78;1.80;;;11.80;99.90;;;;;;5073747;28;20076;-67
2022/09/26 10:43:16;;;;;;;3.40;1.50;;;11.80;99.90;;;;;;5056220;28;20515;-68
2022/09/26 10:45:42;;;;;;;5.93;1.60;;;11.80;99.90;;;;;;5073922;28;20036;-67
2022/09/26 10:48:11;;;;;;;2.72;1.90;;;11.80;99.90;;;;;;5055942;28;20059;-69
2022/09/26 10:50:38;;;;;;;2.90;1.40;;;11.90;99.90;;;;;;5055679;28;20052;-69
2022/09/26 10:53:07;;;;;;;1.83;1.27;;;11.90;99.90;;;;;;5073479;28;20044;-69
2022/09/26 10:55:40;;;;;;;2.58;1.77;;;11.90;99.90;;;;;;5073485;28;20045;-69
2022/09/26 10:58:13;;;;;;;4.20;1.35;;;11.90;99.90;;;;;;5073516;28;20051;-69
2022/09/26 11:00:48;;;;;;;5.88;1.52;;;11.80;99.90;;;;;;5073781;28;20040;-69
2022/09/26 11:03:19;;;;;;;4.13;1.70;;;11.80;99.90;;;;;;5055523;28;20094;-68
2022/09/26 11:05:58;;;;;;;;;;;11.80;99.90;;;;;;5073658;28;20044;-68
2022/09/26 11:08:30;;;;;;;6.07;1.85;;;11.80;99.90;;;;;;5055676;28;19916;-69
2022/09/26 11:10:59;;;;;;;5.40;1.70;;;11.80;99.90;;;;;;5073612;28;20051;-68
2022/09/26 11:13:29;;;;;;;4.53;1.48;;;11.80;99.90;;;;;;5055289;28;20166;-69
2022/09/26 11:16:13;;;;;;;2.35;1.20;;;11.80;99.90;;;;;;5073509;28;20094;-68
2022/09/26 11:18:55;;;;;;;3.28;1.60;;;11.80;99.90;;;;;;5073412;28;20074;-68
2022/09/26 11:21:57;;;;;;;5.65;1.50;;;11.90;99.90;;;;;;5073199;28;20499;-69
2022/09/26 11:24:48;;;;;;;2.92;1.38;;;11.80;99.90;;;;;;5072691;28;20392;-70
2022/09/26 11:27:32;;;;;;;1.83;1.40;;;11.70;99.90;;;;;;5055392;28;20052;-69
2022/09/26 11:30:08;;;;;;;2.38;1.42;;;11.70;99.90;;;;;;5073231;28;20037;-69
2022/09/26 11:32:39;;;;;;;1.80;1.27;;;11.70;99.90;;;;;;5073117;28;20479;-69
2022/09/26 11:35:19;;;;;;;2.05;1.38;;;11.70;99.90;;;;;;5055444;28;20498;-68
2022/09/26 11:37:49;;;;;;;4.88;1.33;;;11.70;99.90;;;;;;5073253;28;20044;-68
2022/09/26 11:40:44;;;;;;;1.40;1.00;;;11.70;99.90;;;;;;5073157;28;20047;-68
2022/09/26 11:43:25;;;;;;;1.63;1.20;;;11.70;99.90;;;;;;5054719;28;20123;-67
2022/09/26 11:45:54;;;;;;;;;;;11.70;99.90;;;;;;5073456;28;20032;-68
2022/09/26 11:48:41;;;;;;;2.80;1.30;;;11.70;99.90;;;;;;5072922;28;19920;-68
2022/09/26 11:51:42;;;;;;;3.05;1.30;;;11.70;99.90;;;;;;5072486;28;20040;-68
2022/09/26 11:54:44;;;;;;;1.83;1.25;;;11.70;99.90;;;;;;5059226;28;20052;-68
2022/09/26 11:57:13;;;;;;;1.95;1.15;;;11.70;99.90;;;;;;5072923;28;20097;-67
2022/09/26 12:00:07;;;;;;;2.58;1.40;;;11.70;99.90;;;;;;5072583;28;20040;-67
2022/09/26 12:03:04;;;;;;;2.08;1.23;;;11.70;99.90;;;;;;5072993;28;20388;-68
2022/09/26 12:05:41;;;;;;;2.38;1.60;;;11.60;99.90;;;;;;5054874;28;20052;-68
2022/09/26 12:08:20;;;;;;;1.30;1.20;;;11.70;99.90;;;;;;5072797;28;20445;-68
2022/09/26 12:10:49;;;;;;;1.85;1.23;;;11.60;99.90;;;;;;5054845;28;20483;-68
2022/09/26 12:13:34;;;;;;;2.47;1.50;;;11.70;99.90;;;;;;5072172;28;20060;-67
2022/09/26 12:16:13;;;;;;;1.23;0.85;;;11.60;99.90;;;;;;5072744;28;20056;-68
2022/09/26 12:18:38;;;;;;;4.95;1.50;;;11.60;99.90;;;;;;5054595;28;20094;-68
2022/09/26 12:21:22;;;;;;;2.28;1.35;;;11.70;99.90;;;;;;5072322;28;20044;-67
2022/09/26 12:23:56;;;;;;;2.63;1.65;;;11.70;99.90;;;;;;5072716;28;20506;-67
2022/09/26 12:26:56;;;;;;;2.47;1.35;;;11.70;99.90;;;;;;5072504;28;20117;-68
2022/09/26 12:29:57;;;;;;;2.33;1.50;;;11.70;99.90;;;;;;5054697;28;20048;-67
2022/09/26 12:32:54;;;;;;;3.65;1.38;;;11.70;99.90;;;;;;5054369;28;20052;-68
2022/09/26 12:35:32;;;;;;;1.48;1.08;;;11.70;99.90;;;;;;5054346;28;20051;-67
2022/09/26 12:38:01;;;;;;;1.33;1.17;;;11.80;99.90;;;;;;5072191;28;20040;-68
2022/09/26 12:40:35;;;;;;;3.22;1.13;;;11.70;99.90;;;;;;5054710;28;20049;-67
2022/09/26 12:43:04;;;;;;;3.88;1.75;;;11.70;99.90;;;;;;5054516;28;20484;-67
2022/09/26 12:46:02;;;;;;;2.13;1.40;;;11.70;99.90;;;;;;5072179;28;20074;-67
2022/09/26 12:48:52;;;;;;;1.33;1.02;;;11.70;99.90;;;;;;5054491;28;20513;-67
2022/09/26 12:51:35;;;;;;;1.42;1.17;;;11.70;99.90;;;;;;5072091;28;20052;-67
2022/09/26 12:54:14;;;;;;;3.95;1.27;;;11.80;99.90;;;;;;5072388;28;20044;-67
2022/09/26 12:56:48;;;;;;;1.15;0.90;;;11.80;99.90;;;;;;5054516;28;20048;-68
2022/09/26 12:59:40;;;;;;;1.65;1.30;;;11.80;99.90;;;;;;5072290;28;20514;-68
2022/09/26 13:02:50;;;;;;;1.00;0.90;;;11.80;99.90;;;;;;5037520;28;20044;-67
2022/09/26 13:05:29;;;;;;;1.42;1.10;;;11.80;99.90;;;;;;5032569;28;20053;-67
2022/09/26 13:08:10;;;;;;;1.58;1.25;;;11.80;99.90;;;;;;5075564;28;20087;-67
2022/09/26 13:10:35;;;;;;;1.35;1.10;;;11.80;99.90;;;;;;5057529;28;20051;-67
2022/09/26 13:13:10;;;;;;;1.05;0.85;;;11.90;99.90;;;;;;5075292;28;20483;-67
2022/09/26 13:15:40;;;;;;;0.85;0.85;;;11.80;99.90;;;;;;5075598;28;20396;-67
2022/09/26 13:18:28;;;;;;;1.42;0.95;;;11.90;99.90;;;;;;5075222;28;20086;-68
2022/09/26 13:21:02;;;;;;;1.40;1.10;;;11.90;99.90;;;;;;5075501;28;20507;-68
2022/09/26 13:23:40;;;;;;;1.92;1.05;;;11.90;99.90;;;;;;5075116;28;20051;-67
2022/09/26 13:26:13;;;;;;;1.88;1.05;;;11.90;99.90;;;;;;5075349;28;20502;-68
2022/09/26 13:28:54;;;;;;;1.25;0.90;;;12.00;99.90;;;;;;5075355;28;20433;-68
2022/09/26 13:31:29;;;;;;;1.60;0.80;;;12.00;99.90;;;;;;5057375;28;20395;-68
2022/09/26 13:34:27;;;;;;;1.45;0.98;;;12.00;99.90;;;;;;5075254;28;20342;-68